sensor_id;sensor_type;location;lat;lon;timestamp;pressure;altitude;pressure_sealevel;temperature;humidity
4346;BME280;2186;49.866;7.986;2023-08-31T00:00:34;99606.69;;;15.38;100.00
4346;BME280;2186;49.866;7.986;2023-08-31T00:03:02;99597.44;;;15.44;100.00
4346;BME280;2186;49.866;7.986;2023-08-31T00:05:29;99605.22;;;15.32;100.00
4346;BME280;2186;49.866;7.986;2023-08-31T00:07:57;99605.88;;;15.22;100.00
4346;BME280;2186;49.866;7.986;2023-08-31T00:10:23;99615.06;;;15.32;100.00
4346;BME280;2186;49.866;7.986;2023-08-31T00:12:50;99606.66;;;15.24;100.00
4346;BME280;2186;49.866;7.986;2023-08-31T00:15:16;99611.91;;;15.25;100.00
4346;BME280;2186;49.866;7.986;2023-08-31T00:17:43;99617.88;;;15.15;100.00
4346;BME280;2186;49.866;7.986;2023-08-31T00:20:09;99616.69;;;15.04;100.00
4346;BME280;2186;49.866;7.986;2023-08-31T00:22:38;99621.53;;;15.14;100.00
4346;BME280;2186;49.866;7.986;2023-08-31T00:25:05;99614.69;;;15.24;100.00
4346;BME280;2186;49.866;7.986;2023-08-31T00:27:35;99620.31;;;15.03;100.00
4346;BME280;2186;49.866;7.986;2023-08-31T00:30:06;99620.69;;;14.97;100.00
4346;BME280;2186;49.866;7.986;2023-08-31T00:32:37;99621.72;;;14.95;100.00
4346;BME280;2186;49.866;7.986;2023-08-31T00:35:05;99616.88;;;15.01;100.00
4346;BME280;2186;49.866;7.986;2023-08-31T00:37:32;99619.91;;;14.95;100.00
4346;BME280;2186;49.866;7.986;2023-08-31T00:39:59;99620.59;;;14.99;100.00
4346;BME280;2186;49.866;7.986;2023-08-31T00:42:26;99619.28;;;14.90;100.00
4346;BME280;2186;49.866;7.986;2023-08-31T00:44:53;99610.16;;;14.47;100.00
4346;BME280;2186;49.866;7.986;2023-08-31T00:47:21;99615.28;;;14.34;100.00
4346;BME280;2186;49.866;7.986;2023-08-31T00:49:47;99622.88;;;14.26;100.00
4346;BME280;2186;49.866;7.986;2023-08-31T00:52:14;99614.03;;;14.24;100.00
4346;BME280;2186;49.866;7.986;2023-08-31T00:54:41;99615.09;;;14.37;100.00
4346;BME280;2186;49.866;7.986;2023-08-31T00:57:08;99625.34;;;14.46;100.00
4346;BME280;2186;49.866;7.986;2023-08-31T00:59:35;99620.44;;;14.55;100.00
4346;BME280;2186;49.866;7.986;2023-08-31T01:07:50;99635.72;;;14.68;100.00
4346;BME280;2186;49.866;7.986;2023-08-31T01:10:34;99628.38;;;14.72;100.00
4346;BME280;2186;49.866;7.986;2023-08-31T01:13:08;99629.91;;;14.76;100.00
4346;BME280;2186;49.866;7.986;2023-08-31T01:15:44;99622.31;;;14.52;100.00
4346;BME280;2186;49.866;7.986;2023-08-31T01:18:16;99623.28;;;14.67;100.00
4346;BME280;2186;49.866;7.986;2023-08-31T01:20:50;99618.09;;;14.64;100.00
4346;BME280;2186;49.866;7.986;2023-08-31T01:23:19;99614.47;;;14.65;100.00
4346;BME280;2186;49.866;7.986;2023-08-31T01:25:47;99613.88;;;14.44;100.00
4346;BME280;2186;49.866;7.986;2023-08-31T01:28:15;99619.31;;;14.59;100.00
4346;BME280;2186;49.866;7.986;2023-08-31T01:30:42;99624.56;;;14.44;100.00
4346;BME280;2186;49.866;7.986;2023-08-31T01:33:08;99618.31;;;14.28;100.00
4346;BME280;2186;49.866;7.986;2023-08-31T01:35:43;99613.78;;;14.13;100.00
4346;BME280;2186;49.866;7.986;2023-08-31T01:38:13;99612.69;;;14.33;100.00
4346;BME280;2186;49.866;7.986;2023-08-31T01:40:54;99624.56;;;14.44;100.00
4346;BME280;2186;49.866;7.986;2023-08-31T01:43:22;99619.63;;;14.52;100.00
4346;BME280;2186;49.866;7.986;2023-08-31T01:45:50;99624.84;;;14.56;100.00
4346;BME280;2186;49.866;7.986;2023-08-31T01:48:17;99625.16;;;14.65;100.00
4346;BME280;2186;49.866;7.986;2023-08-31T01:50:43;99623.97;;;14.71;100.00
4346;BME280;2186;49.866;7.986;2023-08-31T01:53:10;99613.25;;;14.87;100.00
4346;BME280;2186;49.866;7.986;2023-08-31T01:55:37;99624.16;;;14.84;100.00
4346;BME280;2186;49.866;7.986;2023-08-31T01:58:03;99620.53;;;14.85;100.00
4346;BME280;2186;49.866;7.986;2023-08-31T02:00:30;99620.06;;;14.92;100.00
4346;BME280;2186;49.866;7.986;2023-08-31T02:03:01;99614.41;;;14.82;100.00
4346;BME280;2186;49.866;7.986;2023-08-31T02:05:27;99613.16;;;14.88;100.00
4346;BME280;2186;49.866;7.986;2023-08-31T02:07:54;99612.75;;;14.96;100.00
4346;BME280;2186;49.866;7.986;2023-08-31T02:10:20;99623.47;;;14.96;100.00
4346;BME280;2186;49.866;7.986;2023-08-31T02:12:47;99624.47;;;14.93;100.00
4346;BME280;2186;49.866;7.986;2023-08-31T02:15:13;99622.56;;;14.79;100.00
4346;BME280;2186;49.866;7.986;2023-08-31T02:17:40;99627.94;;;14.79;100.00
4346;BME280;2186;49.866;7.986;2023-08-31T02:20:06;99629.69;;;14.80;100.00
4346;BME280;2186;49.866;7.986;2023-08-31T02:22:34;99629.91;;;14.76;100.00
4346;BME280;2186;49.866;7.986;2023-08-31T02:25:04;99643.22;;;14.77;100.00
4346;BME280;2186;49.866;7.986;2023-08-31T02:27:31;99631.66;;;14.77;100.00
4346;BME280;2186;49.866;7.986;2023-08-31T02:29:58;99640.88;;;14.56;100.00
4346;BME280;2186;49.866;7.986;2023-08-31T02:32:24;99641.25;;;14.32;100.00
4346;BME280;2186;49.866;7.986;2023-08-31T02:34:51;99647.66;;;14.12;100.00
4346;BME280;2186;49.866;7.986;2023-08-31T02:37:17;99647.22;;;14.04;100.00
4346;BME280;2186;49.866;7.986;2023-08-31T02:39:44;99647.72;;;14.11;100.00
4346;BME280;2186;49.866;7.986;2023-08-31T02:42:10;99651.16;;;14.30;100.00
4346;BME280;2186;49.866;7.986;2023-08-31T02:44:37;99650.09;;;14.17;100.00
4346;BME280;2186;49.866;7.986;2023-08-31T02:47:03;99648.88;;;13.89;100.00
4346;BME280;2186;49.866;7.986;2023-08-31T02:49:30;99652.13;;;13.44;100.00
4346;BME280;2186;49.866;7.986;2023-08-31T02:51:56;99654.56;;;13.49;100.00
4346;BME280;2186;49.866;7.986;2023-08-31T02:54:22;99655.16;;;13.54;100.00
4346;BME280;2186;49.866;7.986;2023-08-31T02:56:49;99657.47;;;13.61;100.00
4346;BME280;2186;49.866;7.986;2023-08-31T02:59:16;99663.66;;;13.62;100.00
4346;BME280;2186;49.866;7.986;2023-08-31T03:01:43;99661.38;;;13.37;100.00
4346;BME280;2186;49.866;7.986;2023-08-31T03:04:12;99660.88;;;13.29;100.00
4346;BME280;2186;49.866;7.986;2023-08-31T03:06:39;99658.44;;;13.42;100.00
4346;BME280;2186;49.866;7.986;2023-08-31T03:09:05;99665.66;;;13.22;100.00
4346;BME280;2186;49.866;7.986;2023-08-31T03:11:32;99659.75;;;13.16;100.00
4346;BME280;2186;49.866;7.986;2023-08-31T03:13:58;99665.09;;;13.16;100.00
4346;BME280;2186;49.866;7.986;2023-08-31T03:16:24;99668.47;;;13.00;100.00
4346;BME280;2186;49.866;7.986;2023-08-31T03:18:51;99660.84;;;12.74;100.00
4346;BME280;2186;49.866;7.986;2023-08-31T03:21:17;99660.56;;;12.99;100.00
4346;BME280;2186;49.866;7.986;2023-08-31T03:23:44;99668.88;;;12.93;100.00
4346;BME280;2186;49.866;7.986;2023-08-31T03:26:10;99673.88;;;12.99;100.00
4346;BME280;2186;49.866;7.986;2023-08-31T03:28:37;99667.91;;;12.94;100.00
4346;BME280;2186;49.866;7.986;2023-08-31T03:31:05;99668.50;;;13.19;100.00
4346;BME280;2186;49.866;7.986;2023-08-31T03:33:31;99675.75;;;13.16;100.00
4346;BME280;2186;49.866;7.986;2023-08-31T03:36:02;99661.06;;;13.07;100.00
4346;BME280;2186;49.866;7.986;2023-08-31T03:38:31;99671.63;;;13.27;100.00
4346;BME280;2186;49.866;7.986;2023-08-31T03:40:57;99670.06;;;13.23;100.00
4346;BME280;2186;49.866;7.986;2023-08-31T03:43:24;99672.88;;;13.20;100.00
4346;BME280;2186;49.866;7.986;2023-08-31T03:45:54;99676.25;;;13.24;100.00
4346;BME280;2186;49.866;7.986;2023-08-31T03:48:24;99671.66;;;13.09;100.00
4346;BME280;2186;49.866;7.986;2023-08-31T03:50:51;99675.56;;;13.20;100.00
4346;BME280;2186;49.866;7.986;2023-08-31T03:53:18;99673.59;;;13.05;100.00
4346;BME280;2186;49.866;7.986;2023-08-31T03:55:45;99682.91;;;12.96;100.00
4346;BME280;2186;49.866;7.986;2023-08-31T03:58:12;99687.53;;;12.93;100.00
4346;BME280;2186;49.866;7.986;2023-08-31T04:00:38;99689.19;;;12.95;100.00
4346;BME280;2186;49.866;7.986;2023-08-31T04:03:05;99694.25;;;12.83;100.00
4346;BME280;2186;49.866;7.986;2023-08-31T04:05:33;99685.38;;;12.82;100.00
4346;BME280;2186;49.866;7.986;2023-08-31T04:08:00;99689.75;;;12.83;100.00
4346;BME280;2186;49.866;7.986;2023-08-31T04:10:27;99689.28;;;12.75;100.00
4346;BME280;2186;49.866;7.986;2023-08-31T04:12:55;99693.72;;;12.93;100.00
4346;BME280;2186;49.866;7.986;2023-08-31T04:15:22;99699.22;;;12.90;100.00
4346;BME280;2186;49.866;7.986;2023-08-31T04:17:48;99711.63;;;12.91;100.00
4346;BME280;2186;49.866;7.986;2023-08-31T04:20:16;99714.06;;;12.96;100.00
4346;BME280;2186;49.866;7.986;2023-08-31T04:22:43;99717.91;;;12.90;100.00
4346;BME280;2186;49.866;7.986;2023-08-31T04:25:09;99715.56;;;12.83;100.00
4346;BME280;2186;49.866;7.986;2023-08-31T04:27:35;99714.00;;;12.79;100.00
4346;BME280;2186;49.866;7.986;2023-08-31T04:30:05;99716.38;;;12.85;100.00
4346;BME280;2186;49.866;7.986;2023-08-31T04:32:33;99713.06;;;12.80;100.00
4346;BME280;2186;49.866;7.986;2023-08-31T04:34:59;99709.53;;;12.79;100.00
4346;BME280;2186;49.866;7.986;2023-08-31T04:37:26;99707.81;;;12.78;100.00
4346;BME280;2186;49.866;7.986;2023-08-31T04:39:52;99719.25;;;12.80;100.00
4346;BME280;2186;49.866;7.986;2023-08-31T04:42:19;99718.63;;;12.75;100.00
4346;BME280;2186;49.866;7.986;2023-08-31T04:44:45;99719.97;;;12.65;100.00
4346;BME280;2186;49.866;7.986;2023-08-31T04:47:12;99720.69;;;12.29;100.00
4346;BME280;2186;49.866;7.986;2023-08-31T04:49:38;99716.00;;;12.55;100.00
4346;BME280;2186;49.866;7.986;2023-08-31T04:52:05;99726.75;;;12.33;100.00
4346;BME280;2186;49.866;7.986;2023-08-31T04:54:32;99728.59;;;12.51;100.00
4346;BME280;2186;49.866;7.986;2023-08-31T04:56:58;99728.97;;;12.62;100.00
4346;BME280;2186;49.866;7.986;2023-08-31T04:59:25;99730.41;;;12.69;100.00
4346;BME280;2186;49.866;7.986;2023-08-31T05:01:51;99743.81;;;12.68;100.00
4346;BME280;2186;49.866;7.986;2023-08-31T05:04:18;99745.06;;;12.80;100.00
4346;BME280;2186;49.866;7.986;2023-08-31T05:06:44;99753.16;;;12.78;100.00
4346;BME280;2186;49.866;7.986;2023-08-31T05:09:11;99751.91;;;12.85;100.00
4346;BME280;2186;49.866;7.986;2023-08-31T05:11:37;99762.31;;;12.91;100.00
4346;BME280;2186;49.866;7.986;2023-08-31T05:14:03;99758.41;;;12.80;100.00
4346;BME280;2186;49.866;7.986;2023-08-31T05:16:30;99767.34;;;12.79;100.00
4346;BME280;2186;49.866;7.986;2023-08-31T05:18:56;99771.56;;;12.64;100.00
4346;BME280;2186;49.866;7.986;2023-08-31T05:21:23;99768.50;;;12.92;100.00
4346;BME280;2186;49.866;7.986;2023-08-31T05:23:49;99776.00;;;13.40;100.00
4346;BME280;2186;49.866;7.986;2023-08-31T05:26:16;99771.38;;;13.97;100.00
4346;BME280;2186;49.866;7.986;2023-08-31T05:28:42;99770.81;;;14.42;100.00
4346;BME280;2186;49.866;7.986;2023-08-31T05:31:09;99783.84;;;14.83;98.91
4346;BME280;2186;49.866;7.986;2023-08-31T05:33:36;99783.88;;;14.99;98.16
4346;BME280;2186;49.866;7.986;2023-08-31T05:36:03;99786.97;;;15.07;98.92
4346;BME280;2186;49.866;7.986;2023-08-31T05:38:32;99798.31;;;15.28;98.34
4346;BME280;2186;49.866;7.986;2023-08-31T05:41:08;99793.50;;;15.50;97.75
4346;BME280;2186;49.866;7.986;2023-08-31T05:43:36;99800.56;;;15.51;97.30
4346;BME280;2186;49.866;7.986;2023-08-31T05:46:03;99797.72;;;15.54;97.95
4346;BME280;2186;49.866;7.986;2023-08-31T05:48:30;99804.72;;;15.73;96.75
4346;BME280;2186;49.866;7.986;2023-08-31T05:50:56;99803.13;;;16.00;95.36
4346;BME280;2186;49.866;7.986;2023-08-31T05:53:23;99805.97;;;16.27;94.55
4346;BME280;2186;49.866;7.986;2023-08-31T05:55:49;99809.03;;;16.21;96.01
4346;BME280;2186;49.866;7.986;2023-08-31T05:58:16;99810.19;;;16.01;97.97
4346;BME280;2186;49.866;7.986;2023-08-31T06:00:42;99805.56;;;15.89;96.84
4346;BME280;2186;49.866;7.986;2023-08-31T06:03:09;99811.69;;;16.07;96.95
4346;BME280;2186;49.866;7.986;2023-08-31T06:05:37;99814.47;;;15.89;96.68
4346;BME280;2186;49.866;7.986;2023-08-31T06:08:05;99814.41;;;15.91;98.34
4346;BME280;2186;49.866;7.986;2023-08-31T06:10:31;99814.53;;;15.88;96.70
4346;BME280;2186;49.866;7.986;2023-08-31T06:12:58;99816.88;;;15.94;97.75
4346;BME280;2186;49.866;7.986;2023-08-31T06:15:24;99814.53;;;16.04;96.06
4346;BME280;2186;49.866;7.986;2023-08-31T06:17:50;99820.16;;;16.59;95.66
4346;BME280;2186;49.866;7.986;2023-08-31T06:20:17;99823.34;;;16.36;94.64
4346;BME280;2186;49.866;7.986;2023-08-31T06:22:43;99826.06;;;16.50;95.45
4346;BME280;2186;49.866;7.986;2023-08-31T06:25:10;99824.69;;;16.43;94.85
4346;BME280;2186;49.866;7.986;2023-08-31T06:27:37;99826.84;;;16.66;93.85
4346;BME280;2186;49.866;7.986;2023-08-31T06:30:04;99826.84;;;16.66;93.36
4346;BME280;2186;49.866;7.986;2023-08-31T06:32:31;99823.84;;;16.72;91.53
4346;BME280;2186;49.866;7.986;2023-08-31T06:34:57;99836.53;;;16.24;92.89
4346;BME280;2186;49.866;7.986;2023-08-31T06:37:23;99836.13;;;16.16;93.21
4346;BME280;2186;49.866;7.986;2023-08-31T06:39:50;99835.88;;;16.21;94.22
4346;BME280;2186;49.866;7.986;2023-08-31T06:42:16;99842.91;;;16.08;94.78
4346;BME280;2186;49.866;7.986;2023-08-31T06:44:43;99843.38;;;16.14;94.16
4346;BME280;2186;49.866;7.986;2023-08-31T06:47:09;99844.25;;;16.15;93.15
4346;BME280;2186;49.866;7.986;2023-08-31T06:49:36;99832.25;;;16.06;94.42
4346;BME280;2186;49.866;7.986;2023-08-31T06:52:02;99842.44;;;16.15;94.89
4346;BME280;2186;49.866;7.986;2023-08-31T06:54:38;99847.88;;;16.44;94.03
4346;BME280;2186;49.866;7.986;2023-08-31T06:57:05;99844.53;;;16.40;93.34
4346;BME280;2186;49.866;7.986;2023-08-31T06:59:31;99846.84;;;16.76;93.35
4346;BME280;2186;49.866;7.986;2023-08-31T07:01:58;99849.06;;;16.54;94.02
4346;BME280;2186;49.866;7.986;2023-08-31T07:04:26;99847.16;;;16.86;93.89
4346;BME280;2186;49.866;7.986;2023-08-31T07:06:53;99851.94;;;17.24;91.54
4346;BME280;2186;49.866;7.986;2023-08-31T07:09:19;99848.31;;;16.96;92.42
4346;BME280;2186;49.866;7.986;2023-08-31T07:11:46;99851.38;;;16.90;91.52
4346;BME280;2186;49.866;7.986;2023-08-31T07:14:12;99848.38;;;16.80;91.97
4346;BME280;2186;49.866;7.986;2023-08-31T07:16:39;99848.91;;;17.01;90.48
4346;BME280;2186;49.866;7.986;2023-08-31T07:19:05;99847.06;;;16.73;91.50
4346;BME280;2186;49.866;7.986;2023-08-31T07:21:32;99857.91;;;17.00;91.52
4346;BME280;2186;49.866;7.986;2023-08-31T07:23:58;99848.69;;;16.76;90.44
4346;BME280;2186;49.866;7.986;2023-08-31T07:26:24;99848.50;;;17.22;89.73
4346;BME280;2186;49.866;7.986;2023-08-31T07:28:51;99846.09;;;16.88;90.54
4346;BME280;2186;49.866;7.986;2023-08-31T07:31:17;99853.75;;;16.95;89.63
4346;BME280;2186;49.866;7.986;2023-08-31T07:33:44;99855.41;;;16.97;90.40
4346;BME280;2186;49.866;7.986;2023-08-31T07:36:10;99849.94;;;17.27;89.92
4346;BME280;2186;49.866;7.986;2023-08-31T07:38:37;99847.72;;;17.20;89.61
4346;BME280;2186;49.866;7.986;2023-08-31T07:41:03;99857.13;;;17.55;87.64
4346;BME280;2186;49.866;7.986;2023-08-31T07:43:30;99859.19;;;17.64;87.49
4346;BME280;2186;49.866;7.986;2023-08-31T07:45:57;99864.13;;;17.58;89.60
4346;BME280;2186;49.866;7.986;2023-08-31T07:48:23;99858.94;;;17.55;88.09
4346;BME280;2186;49.866;7.986;2023-08-31T07:50:50;99864.88;;;17.60;88.69
4346;BME280;2186;49.866;7.986;2023-08-31T07:53:16;99859.94;;;17.66;87.87
4346;BME280;2186;49.866;7.986;2023-08-31T07:55:53;99870.47;;;17.28;89.60
4346;BME280;2186;49.866;7.986;2023-08-31T07:58:21;99875.16;;;17.25;89.94
4346;BME280;2186;49.866;7.986;2023-08-31T08:00:48;99876.31;;;17.35;90.44
4346;BME280;2186;49.866;7.986;2023-08-31T08:03:14;99879.88;;;17.07;90.28
4346;BME280;2186;49.866;7.986;2023-08-31T08:05:42;99876.72;;;17.29;89.46
4346;BME280;2186;49.866;7.986;2023-08-31T08:08:08;99877.94;;;17.37;89.84
4346;BME280;2186;49.866;7.986;2023-08-31T08:10:34;99886.28;;;17.04;90.18
4346;BME280;2186;49.866;7.986;2023-08-31T08:13:01;99883.97;;;16.98;91.56
4346;BME280;2186;49.866;7.986;2023-08-31T08:15:27;99891.78;;;17.31;90.25
4346;BME280;2186;49.866;7.986;2023-08-31T08:17:54;99889.66;;;17.08;90.96
4346;BME280;2186;49.866;7.986;2023-08-31T08:20:21;99894.66;;;17.00;91.49
4346;BME280;2186;49.866;7.986;2023-08-31T08:22:47;99898.31;;;17.27;91.70
4346;BME280;2186;49.866;7.986;2023-08-31T08:25:15;99891.19;;;17.55;90.71
4346;BME280;2186;49.866;7.986;2023-08-31T08:27:42;99895.78;;;17.24;91.48
4346;BME280;2186;49.866;7.986;2023-08-31T08:30:08;99897.91;;;17.33;92.03
4346;BME280;2186;49.866;7.986;2023-08-31T08:32:36;99892.94;;;17.41;90.70
4346;BME280;2186;49.866;7.986;2023-08-31T08:35:02;99898.66;;;17.64;90.06
4346;BME280;2186;49.866;7.986;2023-08-31T08:37:30;99900.28;;;17.81;88.50
4346;BME280;2186;49.866;7.986;2023-08-31T08:40:00;99904.38;;;18.00;85.98
4346;BME280;2186;49.866;7.986;2023-08-31T08:42:29;99905.13;;;18.02;84.86
4346;BME280;2186;49.866;7.986;2023-08-31T08:44:57;99904.59;;;18.24;85.23
4346;BME280;2186;49.866;7.986;2023-08-31T08:47:25;99909.28;;;18.48;83.63
4346;BME280;2186;49.866;7.986;2023-08-31T08:49:53;99908.09;;;18.39;83.70
4346;BME280;2186;49.866;7.986;2023-08-31T08:52:21;99911.91;;;18.62;84.13
4346;BME280;2186;49.866;7.986;2023-08-31T08:54:49;99903.41;;;18.28;82.97
4346;BME280;2186;49.866;7.986;2023-08-31T08:57:16;99910.94;;;18.23;82.35
4346;BME280;2186;49.866;7.986;2023-08-31T08:59:42;99911.78;;;18.51;82.00
4346;BME280;2186;49.866;7.986;2023-08-31T09:02:10;99908.13;;;18.79;81.09
4346;BME280;2186;49.866;7.986;2023-08-31T09:04:38;99910.41;;;19.23;80.42
4346;BME280;2186;49.866;7.986;2023-08-31T09:07:05;99909.75;;;19.32;80.65
4346;BME280;2186;49.866;7.986;2023-08-31T09:09:31;99903.78;;;19.78;79.75
4346;BME280;2186;49.866;7.986;2023-08-31T09:12:06;99905.78;;;19.63;73.13
4346;BME280;2186;49.866;7.986;2023-08-31T09:14:34;99906.06;;;20.08;72.72
4346;BME280;2186;49.866;7.986;2023-08-31T09:17:00;99899.63;;;19.98;70.82
4346;BME280;2186;49.866;7.986;2023-08-31T09:19:27;99904.22;;;20.45;71.29
4346;BME280;2186;49.866;7.986;2023-08-31T09:21:56;99898.03;;;20.67;70.31
4346;BME280;2186;49.866;7.986;2023-08-31T09:24:23;99907.94;;;20.31;69.38
4346;BME280;2186;49.866;7.986;2023-08-31T09:26:55;99898.94;;;20.79;70.39
4346;BME280;2186;49.866;7.986;2023-08-31T09:29:22;99894.13;;;20.71;68.39
4346;BME280;2186;49.866;7.986;2023-08-31T09:31:49;99897.59;;;20.49;67.57
4346;BME280;2186;49.866;7.986;2023-08-31T09:34:16;99905.59;;;20.51;65.69
4346;BME280;2186;49.866;7.986;2023-08-31T09:36:43;99905.25;;;21.02;65.07
4346;BME280;2186;49.866;7.986;2023-08-31T09:39:12;99900.84;;;20.65;65.54
4346;BME280;2186;49.866;7.986;2023-08-31T09:41:55;99903.88;;;20.85;64.97
4346;BME280;2186;49.866;7.986;2023-08-31T09:44:22;99897.09;;;20.79;64.83
4346;BME280;2186;49.866;7.986;2023-08-31T09:46:48;99898.59;;;20.83;62.52
4346;BME280;2186;49.866;7.986;2023-08-31T09:49:16;99904.22;;;21.26;63.40
4346;BME280;2186;49.866;7.986;2023-08-31T09:51:44;99898.09;;;20.89;61.63
4346;BME280;2186;49.866;7.986;2023-08-31T09:54:13;99906.50;;;20.97;60.34
4346;BME280;2186;49.866;7.986;2023-08-31T09:56:46;99899.00;;;21.01;60.92
4346;BME280;2186;49.866;7.986;2023-08-31T09:59:14;99907.06;;;21.47;60.83
4346;BME280;2186;49.866;7.986;2023-08-31T10:01:45;99896.00;;;21.62;60.87
4346;BME280;2186;49.866;7.986;2023-08-31T10:04:13;99898.78;;;21.15;60.56
4346;BME280;2186;49.866;7.986;2023-08-31T10:06:39;99898.94;;;21.70;60.98
4346;BME280;2186;49.866;7.986;2023-08-31T10:09:06;99895.25;;;21.48;60.28
4346;BME280;2186;49.866;7.986;2023-08-31T10:11:36;99887.88;;;21.50;59.65
4346;BME280;2186;49.866;7.986;2023-08-31T10:14:04;99892.44;;;21.61;61.38
4346;BME280;2186;49.866;7.986;2023-08-31T10:16:32;99888.84;;;21.49;59.56
4346;BME280;2186;49.866;7.986;2023-08-31T10:18:58;99902.13;;;21.75;58.36
4346;BME280;2186;49.866;7.986;2023-08-31T10:21:25;99896.59;;;21.65;57.66
4346;BME280;2186;49.866;7.986;2023-08-31T10:23:52;99885.44;;;21.58;57.63
4346;BME280;2186;49.866;7.986;2023-08-31T10:26:27;99892.03;;;21.88;58.73
4346;BME280;2186;49.866;7.986;2023-08-31T10:28:54;99892.53;;;21.93;58.12
4346;BME280;2186;49.866;7.986;2023-08-31T10:31:21;99886.16;;;21.72;57.87
4346;BME280;2186;49.866;7.986;2023-08-31T10:33:59;99894.28;;;21.72;57.75
4346;BME280;2186;49.866;7.986;2023-08-31T10:39:15;99894.47;;;22.13;56.87
4346;BME280;2186;49.866;7.986;2023-08-31T10:41:51;99894.81;;;22.20;53.10
4346;BME280;2186;49.866;7.986;2023-08-31T10:44:26;99900.22;;;22.20;53.97
4346;BME280;2186;49.866;7.986;2023-08-31T10:46:54;99898.22;;;22.65;54.29
4346;BME280;2186;49.866;7.986;2023-08-31T10:49:21;99892.22;;;22.18;51.80
4346;BME280;2186;49.866;7.986;2023-08-31T10:51:58;99898.97;;;22.35;54.58
4346;BME280;2186;49.866;7.986;2023-08-31T10:54:55;99898.56;;;22.72;53.11
4346;BME280;2186;49.866;7.986;2023-08-31T10:57:29;99896.56;;;22.53;53.31
4346;BME280;2186;49.866;7.986;2023-08-31T10:59:57;99890.50;;;22.82;53.31
4346;BME280;2186;49.866;7.986;2023-08-31T11:02:38;99894.41;;;22.68;50.70
4346;BME280;2186;49.866;7.986;2023-08-31T11:05:11;99892.44;;;22.59;51.45
4346;BME280;2186;49.866;7.986;2023-08-31T11:07:40;99892.03;;;22.42;50.90
4346;BME280;2186;49.866;7.986;2023-08-31T11:12:39;99898.72;;;22.59;49.38
4346;BME280;2186;49.866;7.986;2023-08-31T11:15:06;99890.72;;;23.11;49.18
4346;BME280;2186;49.866;7.986;2023-08-31T11:17:33;99895.09;;;23.02;49.23
4346;BME280;2186;49.866;7.986;2023-08-31T11:20:00;99888.50;;;22.95;48.84
4346;BME280;2186;49.866;7.986;2023-08-31T11:22:27;99888.72;;;23.13;49.33
4346;BME280;2186;49.866;7.986;2023-08-31T11:24:54;99890.53;;;23.02;47.83
4346;BME280;2186;49.866;7.986;2023-08-31T11:27:20;99888.38;;;23.27;48.58
4346;BME280;2186;49.866;7.986;2023-08-31T11:29:47;99886.75;;;23.66;47.99
4346;BME280;2186;49.866;7.986;2023-08-31T11:32:14;99896.44;;;23.99;45.42
4346;BME280;2186;49.866;7.986;2023-08-31T11:34:42;99893.94;;;23.25;46.79
4346;BME280;2186;49.866;7.986;2023-08-31T11:37:10;99892.22;;;23.24;47.69
4346;BME280;2186;49.866;7.986;2023-08-31T11:39:37;99888.44;;;23.06;46.49
4346;BME280;2186;49.866;7.986;2023-08-31T11:42:06;99893.44;;;22.37;48.55
4346;BME280;2186;49.866;7.986;2023-08-31T11:44:32;99884.88;;;22.21;49.10
4346;BME280;2186;49.866;7.986;2023-08-31T11:46:59;99887.03;;;22.38;50.17
4346;BME280;2186;49.866;7.986;2023-08-31T11:49:27;99888.13;;;21.81;50.09
4346;BME280;2186;49.866;7.986;2023-08-31T11:51:54;99885.38;;;22.14;50.43
4346;BME280;2186;49.866;7.986;2023-08-31T11:54:24;99887.13;;;21.93;51.99
4346;BME280;2186;49.866;7.986;2023-08-31T11:56:51;99898.03;;;22.03;51.78
4346;BME280;2186;49.866;7.986;2023-08-31T11:59:18;99887.72;;;22.08;51.93
4346;BME280;2186;49.866;7.986;2023-08-31T12:01:47;99891.19;;;22.42;51.85
4346;BME280;2186;49.866;7.986;2023-08-31T12:04:20;99888.00;;;22.37;50.26
4346;BME280;2186;49.866;7.986;2023-08-31T12:06:50;99880.59;;;21.84;51.99
4346;BME280;2186;49.866;7.986;2023-08-31T12:09:17;99892.28;;;21.96;52.99
4346;BME280;2186;49.866;7.986;2023-08-31T12:11:51;99889.84;;;21.82;51.28
4346;BME280;2186;49.866;7.986;2023-08-31T12:14:24;99903.13;;;21.85;50.62
4346;BME280;2186;49.866;7.986;2023-08-31T12:16:52;99898.22;;;21.68;52.21
4346;BME280;2186;49.866;7.986;2023-08-31T12:19:18;99899.94;;;21.69;52.47
4346;BME280;2186;49.866;7.986;2023-08-31T12:21:46;99892.88;;;21.88;52.73
4346;BME280;2186;49.866;7.986;2023-08-31T12:24:13;99889.19;;;21.89;52.40
4346;BME280;2186;49.866;7.986;2023-08-31T12:26:40;99898.47;;;22.30;53.31
4346;BME280;2186;49.866;7.986;2023-08-31T12:29:06;99889.38;;;21.66;51.67
4346;BME280;2186;49.866;7.986;2023-08-31T12:31:33;99893.53;;;21.70;53.14
4346;BME280;2186;49.866;7.986;2023-08-31T12:34:00;99894.66;;;21.45;52.52
4346;BME280;2186;49.866;7.986;2023-08-31T12:36:30;99895.63;;;21.33;53.46
4346;BME280;2186;49.866;7.986;2023-08-31T12:38:57;99895.66;;;21.66;52.70
4346;BME280;2186;49.866;7.986;2023-08-31T12:41:28;99889.47;;;21.64;52.91
4346;BME280;2186;49.866;7.986;2023-08-31T12:43:55;99892.31;;;21.63;52.17
4346;BME280;2186;49.866;7.986;2023-08-31T12:46:21;99887.13;;;21.82;53.38
4346;BME280;2186;49.866;7.986;2023-08-31T12:48:48;99883.19;;;21.86;54.08
4346;BME280;2186;49.866;7.986;2023-08-31T12:51:16;99885.41;;;21.81;55.91
4346;BME280;2186;49.866;7.986;2023-08-31T12:53:43;99875.66;;;21.89;54.50
4346;BME280;2186;49.866;7.986;2023-08-31T12:56:12;99887.88;;;22.38;55.02
4346;BME280;2186;49.866;7.986;2023-08-31T12:58:38;99879.75;;;22.59;52.18
4346;BME280;2186;49.866;7.986;2023-08-31T13:01:05;99876.06;;;22.39;53.30
4346;BME280;2186;49.866;7.986;2023-08-31T13:03:32;99878.59;;;22.52;53.00
4346;BME280;2186;49.866;7.986;2023-08-31T13:05:58;99876.31;;;22.36;53.33
4346;BME280;2186;49.866;7.986;2023-08-31T13:08:25;99885.81;;;22.63;49.98
4346;BME280;2186;49.866;7.986;2023-08-31T13:10:54;99878.59;;;22.52;49.98
4346;BME280;2186;49.866;7.986;2023-08-31T13:13:21;99884.31;;;22.38;50.23
4346;BME280;2186;49.866;7.986;2023-08-31T13:15:48;99879.16;;;22.35;50.74
4346;BME280;2186;49.866;7.986;2023-08-31T13:18:15;99885.72;;;22.53;52.61
4346;BME280;2186;49.866;7.986;2023-08-31T13:20:50;99878.06;;;22.26;50.92
4346;BME280;2186;49.866;7.986;2023-08-31T13:23:16;99884.31;;;22.38;51.46
4346;BME280;2186;49.866;7.986;2023-08-31T13:25:44;99892.63;;;22.14;51.14
4346;BME280;2186;49.866;7.986;2023-08-31T13:28:10;99881.56;;;22.06;51.39
4346;BME280;2186;49.866;7.986;2023-08-31T13:30:38;99888.59;;;22.08;50.62